EXS16YG EGBB-LIPZ
Flight info
| Callsign | EXS16YG |
|---|---|
| Flight time | N/A |
| Altitude | 39000 |
| Route | COWLY L612 MID UL612 VEULE DCT TEPRI UN491 POGZI DCT GELTA DCT LUVAL DCT SHARA DCT DEVDI DCT RIPUS DCT RESIA DCT ATPED DCT MOVOR P131 ADOSA L612 ALBET |
| Aircraft | B738/M-SDE2E3FGHIRWXY/LB1 |
Departure
| Time | N/A |
|---|---|
| Airport | Birmingham Airport (EGBB) |
Arrival
| Time | 2026-04-30 19:22 |
|---|---|
| Airport | Venice Marco Polo Airport (LIPZ) |
| Time | Latitude | Longitude | Altitude | Speed | Heading |
|---|---|---|---|---|---|
| 2026-04-30 19:04 | 45.40636 | 11.54598 | 25487 ft | 478 kts | 128° |
| 2026-04-30 19:05 | 45.36164 | 11.61649 | 24061 ft | 477 kts | 118° |
| 2026-04-30 19:05 | 45.34425 | 11.70382 | 22258 ft | 454 kts | 86° |
| 2026-04-30 19:06 | 45.34871 | 11.79215 | 20492 ft | 448 kts | 85° |
| 2026-04-30 19:06 | 45.34316 | 11.83496 | 20132 ft | 435 kts | 107° |
| 2026-04-30 19:06 | 45.30994 | 11.90371 | 18490 ft | 432 kts | 139° |
| 2026-04-30 19:07 | 45.26073 | 11.95109 | 16529 ft | 424 kts | 144° |
| 2026-04-30 19:07 | 45.23625 | 11.97403 | 15523 ft | 419 kts | 144° |
| 2026-04-30 19:08 | 45.18845 | 12.01896 | 13557 ft | 406 kts | 144° |
| 2026-04-30 19:08 | 45.14240 | 12.06253 | 11506 ft | 395 kts | 144° |
| 2026-04-30 19:08 | 45.11974 | 12.08404 | 10533 ft | 390 kts | 144° |
| 2026-04-30 19:09 | 45.07735 | 12.12389 | 10173 ft | 342 kts | 144° |
| 2026-04-30 19:09 | 45.05808 | 12.14177 | 10020 ft | 322 kts | 144° |
| 2026-04-30 19:09 | 45.03982 | 12.15857 | 9863 ft | 304 kts | 144° |
| 2026-04-30 19:10 | 45.01186 | 12.19697 | 9572 ft | 267 kts | 105° |
| 2026-04-30 19:10 | 45.01611 | 12.24222 | 9314 ft | 226 kts | 47° |
| 2026-04-30 19:11 | 45.02868 | 12.25399 | 9121 ft | 216 kts | 17° |
| 2026-04-30 19:11 | 45.05816 | 12.24936 | 8580 ft | 214 kts | 349° |
| 2026-04-30 19:11 | 45.07252 | 12.24409 | 8320 ft | 212 kts | 349° |
| 2026-04-30 19:12 | 45.08675 | 12.23872 | 8073 ft | 211 kts | 349° |
| 2026-04-30 19:12 | 45.09612 | 12.23513 | 7893 ft | 210 kts | 349° |
| 2026-04-30 19:12 | 45.11020 | 12.22966 | 7644 ft | 209 kts | 349° |
| 2026-04-30 19:13 | 45.14270 | 12.21699 | 7069 ft | 208 kts | 349° |
| 2026-04-30 19:13 | 45.17066 | 12.20592 | 6579 ft | 209 kts | 349° |
| 2026-04-30 19:13 | 45.18468 | 12.20026 | 6324 ft | 210 kts | 349° |
| 2026-04-30 19:14 | 45.19873 | 12.19452 | 6065 ft | 211 kts | 349° |
| 2026-04-30 19:14 | 45.20808 | 12.19069 | 5907 ft | 211 kts | 349° |
| 2026-04-30 19:14 | 45.22221 | 12.18487 | 5644 ft | 212 kts | 349° |
| 2026-04-30 19:14 | 45.23641 | 12.17899 | 5394 ft | 213 kts | 349° |
| 2026-04-30 19:15 | 45.25069 | 12.17304 | 5144 ft | 214 kts | 349° |
| 2026-04-30 19:15 | 45.27936 | 12.16108 | 4636 ft | 215 kts | 349° |
| 2026-04-30 19:15 | 45.29839 | 12.15315 | 4290 ft | 215 kts | 349° |
| 2026-04-30 19:16 | 45.30790 | 12.14921 | 4121 ft | 215 kts | 349° |
| 2026-04-30 19:16 | 45.32222 | 12.14335 | 3867 ft | 214 kts | 349° |
| 2026-04-30 19:16 | 45.34854 | 12.15058 | 3343 ft | 195 kts | 46° |
| 2026-04-30 19:17 | 45.36194 | 12.16740 | 3051 ft | 191 kts | 44° |
| 2026-04-30 19:17 | 45.37763 | 12.18716 | 2969 ft | 167 kts | 45° |
| 2026-04-30 19:17 | 45.38621 | 12.19823 | 2879 ft | 171 kts | 46° |
| 2026-04-30 19:18 | 45.40091 | 12.21725 | 2500 ft | 168 kts | 46° |
| 2026-04-30 19:18 | 45.41225 | 12.23192 | 2197 ft | 165 kts | 46° |
| 2026-04-30 19:18 | 45.42068 | 12.24282 | 1990 ft | 164 kts | 45° |
| 2026-04-30 19:19 | 45.42920 | 12.25384 | 1760 ft | 166 kts | 45° |
| 2026-04-30 19:19 | 45.43769 | 12.26480 | 1543 ft | 161 kts | 44° |
| 2026-04-30 19:19 | 45.45334 | 12.28500 | 1123 ft | 146 kts | 44° |
| 2026-04-30 19:20 | 45.46072 | 12.29461 | 957 ft | 143 kts | 45° |
| 2026-04-30 19:20 | 45.46801 | 12.30418 | 747 ft | 144 kts | 44° |
| 2026-04-30 19:20 | 45.48323 | 12.32375 | 360 ft | 149 kts | 43° |
| 2026-04-30 19:21 | 45.49093 | 12.33358 | 148 ft | 149 kts | 43° |
| 2026-04-30 19:21 | 45.50433 | 12.35086 | 12 ft | 82 kts | 43° |
| 2026-04-30 19:22 | 45.50842 | 12.35437 | 15 ft | 20 kts | 10° |
| 2026-04-30 19:22 | 45.50940 | 12.35184 | 16 ft | 15 kts | 224° |
| 2026-04-30 19:23 | 45.50725 | 12.34908 | 15 ft | 13 kts | 221° |
| 2026-04-30 19:24 | 45.50609 | 12.34725 | 15 ft | 12 kts | 257° |
| 2026-04-30 19:24 | 45.50603 | 12.34605 | 16 ft | 12 kts | 268° |
| 2026-04-30 19:24 | 45.50569 | 12.34389 | 15 ft | 11 kts | 222° |
| 2026-04-30 19:25 | 45.50552 | 12.34224 | 16 ft | 2 kts | 267° |
| 2026-04-30 19:26 | 45.50552 | 12.34223 | 16 ft | 0 kts | 267° |